Time;durP1;ratioP1;P1;durP2;ratioP2;P2;SDS_P1;SDS_P2;PMS_P1;PMS_P2;Temp;Humidity;BMP_temperature;BMP_pressure;BME280_temperature;BME280_humidity;BME280_pressure;Samples;Min_cycle;Max_cycle;Signal;HPM_P1;HPM_P2
2024/01/27 00:09:06;;;;;;;0.10;0.00;;;7.10;94.30;;;;;;21035299;27;20039;-46
2024/01/27 00:19:08;;;;;;;0.20;0.00;;;7.00;93.40;;;;;;21035066;27;20516;-51
2024/01/27 00:29:10;;;;;;;0.20;0.00;;;6.80;92.90;;;;;;21029481;27;20044;-50
2024/01/27 00:39:11;;;;;;;0.10;0.00;;;6.70;92.90;;;;;;21012643;28;20119;-47
2024/01/27 00:49:13;;;;;;;0.10;0.00;;;6.30;93.10;;;;;;21032893;27;20048;-49
2024/01/27 00:59:15;;;;;;;0.00;0.00;;;6.20;93.30;;;;;;21046800;27;20035;-45
2024/01/27 01:09:17;;;;;;;0.10;0.10;;;6.10;93.00;;;;;;21049170;27;20047;-48
2024/01/27 01:19:22;;;;;;;0.00;0.00;;;6.70;91.60;;;;;;21029540;27;20043;-47
2024/01/27 01:29:24;;;;;;;0.10;0.00;;;6.60;91.50;;;;;;21043644;27;20159;-49
2024/01/27 01:39:29;;;;;;;0.10;0.00;;;6.50;91.30;;;;;;21047734;27;20039;-49
2024/01/27 01:49:33;;;;;;;0.00;0.00;;;6.40;91.10;;;;;;21045660;27;20035;-50
2024/01/27 01:59:40;;;;;;;0.00;0.00;;;6.30;91.30;;;;;;21043933;27;20069;-48
2024/01/27 02:09:42;;;;;;;0.03;0.00;;;6.00;91.50;;;;;;21043930;27;20108;-47
2024/01/27 02:19:44;;;;;;;0.00;0.00;;;5.80;91.70;;;;;;21025101;27;20831;-48
2024/01/27 02:29:45;;;;;;;0.00;0.00;;;5.50;92.30;;;;;;21042822;27;20055;-45
2024/01/27 02:39:47;;;;;;;0.17;0.00;;;5.10;92.30;;;;;;21022727;27;20503;-46
2024/01/27 02:49:49;;;;;;;0.00;0.00;;;5.30;91.80;;;;;;21042769;27;20043;-48
2024/01/27 02:59:51;;;;;;;0.00;0.00;;;5.10;91.70;;;;;;21037775;27;20930;-47
2024/01/27 03:09:53;;;;;;;0.00;0.00;;;5.80;90.70;;;;;;21041550;27;20831;-47
2024/01/27 03:19:54;;;;;;;0.00;0.00;;;5.60;90.60;;;;;;21019774;27;20040;-49
2024/01/27 03:30:01;;;;;;;0.17;0.00;;;5.90;90.10;;;;;;21039324;27;20561;-46
2024/01/27 03:40:04;;;;;;;0.00;0.00;;;5.80;90.00;;;;;;21038681;27;20043;-45
2024/01/27 03:50:07;;;;;;;0.00;0.00;;;5.70;89.80;;;;;;21032355;27;20041;-48
2024/01/27 04:00:11;;;;;;;0.10;0.00;;;5.80;87.90;;;;;;21038156;27;20108;-46
2024/01/27 04:10:18;;;;;;;0.00;0.00;;;5.70;88.00;;;;;;21016228;27;20044;-49
2024/01/27 04:20:26;;;;;;;0.00;0.00;;;5.50;88.60;;;;;;21032318;27;20038;-48
2024/01/27 04:30:28;;;;;;;0.00;0.00;;;5.50;88.60;;;;;;21035212;27;20051;-48
2024/01/27 04:40:31;;;;;;;0.00;0.00;;;5.40;87.90;;;;;;21035628;28;21053;-51
2024/01/27 04:50:33;;;;;;;0.00;0.00;;;5.50;86.80;;;;;;21029268;28;20031;-47
2024/01/27 05:00:34;;;;;;;0.00;0.00;;;5.40;86.30;;;;;;21032670;28;21131;-46
2024/01/27 05:10:36;;;;;;;0.00;0.00;;;5.50;85.30;;;;;;21013528;28;20084;-47
2024/01/27 05:20:38;;;;;;;0.10;0.00;;;5.60;84.90;;;;;;21029487;28;20043;-49
2024/01/27 05:30:40;;;;;;;0.00;0.00;;;5.40;85.10;;;;;;20995875;28;20047;-46
2024/01/27 05:40:45;;;;;;;0.00;0.00;;;5.40;83.30;;;;;;21040621;27;20039;-47
2024/01/27 05:51:03;;;;;;;0.00;0.00;;;5.50;83.20;;;;;;21042203;27;20089;-48
2024/01/27 06:01:05;;;;;;;0.00;0.00;;;5.30;83.30;;;;;;21042315;27;20053;-45
2024/01/27 06:11:06;;;;;;;0.00;0.00;;;5.10;84.50;;;;;;21024133;27;21140;-45
2024/01/27 06:21:08;;;;;;;0.08;0.00;;;5.00;84.10;;;;;;21045108;27;20096;-48
2024/01/27 06:31:14;;;;;;;0.00;0.00;;;5.10;83.20;;;;;;21041721;27;20051;-45
2024/01/27 06:41:16;;;;;;;0.10;0.00;;;5.30;82.20;;;;;;21035844;27;20035;-47
2024/01/27 06:51:19;;;;;;;0.00;0.00;;;5.20;82.50;;;;;;21035936;27;20043;-45
2024/01/27 07:01:21;;;;;;;0.00;0.00;;;5.10;81.40;;;;;;21037357;27;20031;-46
2024/01/27 07:11:22;;;;;;;0.00;0.00;;;5.20;81.80;;;;;;21034135;27;20043;-47
2024/01/27 07:21:28;;;;;;;0.03;0.00;;;5.40;81.80;;;;;;21033850;27;20039;-45
2024/01/27 07:31:31;;;;;;;0.00;0.00;;;5.30;81.60;;;;;;21033385;27;20047;-45
2024/01/27 07:41:32;;;;;;;0.17;0.00;;;5.20;81.40;;;;;;21027911;27;20035;-48
2024/01/27 07:51:34;;;;;;;0.00;0.00;;;5.50;80.90;;;;;;21011199;27;20066;-53
2024/01/27 08:01:36;;;;;;;0.90;0.00;;;5.80;81.30;;;;;;21030443;27;20044;-46
2024/01/27 08:11:38;;;;;;;0.35;0.00;;;6.50;79.70;;;;;;21030992;27;20035;-45
2024/01/27 08:21:40;;;;;;;0.00;0.00;;;7.00;77.20;;;;;;21029167;27;20068;-44
2024/01/27 08:31:42;;;;;;;0.05;0.00;;;7.40;75.70;;;;;;21030240;27;20056;-45
2024/01/27 08:41:43;;;;;;;0.00;0.00;;;7.80;75.10;;;;;;21030327;28;20035;-54
2024/01/27 08:51:45;;;;;;;0.05;0.00;;;8.20;72.40;;;;;;21030614;28;20060;-49
2024/01/27 09:01:47;;;;;;;0.00;0.00;;;8.50;70.30;;;;;;21027142;28;21054;-56
2024/01/27 09:11:50;;;;;;;0.00;0.00;;;9.00;68.00;;;;;;21029294;27;20036;-55
2024/01/27 09:21:54;;;;;;;0.00;0.00;;;9.50;67.70;;;;;;21040695;27;20433;-53
2024/01/27 09:31:56;;;;;;;0.10;0.03;;;9.80;67.50;;;;;;21040588;27;20059;-53
2024/01/27 09:42:03;;;;;;;0.20;0.00;;;9.80;68.10;;;;;;21037960;27;20950;-62
2024/01/27 09:52:05;;;;;;;0.80;0.03;;;9.80;67.80;;;;;;21018237;27;21179;-59
2024/01/27 10:02:11;;;;;;;0.00;0.00;;;10.00;69.90;;;;;;21035873;27;20043;-52
2024/01/27 10:12:13;;;;;;;0.10;0.00;;;10.90;69.10;;;;;;21035018;27;20779;-45
2024/01/27 10:22:18;;;;;;;0.15;0.08;;;10.80;65.70;;;;;;21037186;27;21763;-57
2024/01/27 10:32:19;;;;;;;0.10;0.00;;;11.00;67.70;;;;;;21038871;27;20625;-46
2024/01/27 10:42:21;;;;;;;0.20;0.00;;;10.70;65.20;;;;;;21034043;27;21078;-48
2024/01/27 10:52:34;;;;;;;0.25;0.08;;;11.00;65.80;;;;;;21018216;27;20410;-45
2024/01/27 11:02:38;;;;;;;0.00;0.00;;;11.80;65.10;;;;;;21035533;27;20051;-49
2024/01/27 11:12:40;;;;;;;0.08;0.00;;;11.50;63.30;;;;;;21033160;27;20112;-49
2024/01/27 11:22:43;;;;;;;1.25;0.10;;;11.30;62.70;;;;;;21031430;27;20043;-53
2024/01/27 11:32:48;;;;;;;0.38;0.00;;;11.50;64.20;;;;;;21030688;27;21242;-59
2024/01/27 11:42:57;;;;;;;0.55;0.10;;;11.50;63.80;;;;;;21032362;27;20039;-45
2024/01/27 11:52:58;;;;;;;0.10;0.03;;;12.10;65.30;;;;;;21014341;27;20562;-49
2024/01/27 12:03:00;;;;;;;0.50;0.00;;;12.90;63.00;;;;;;21032837;27;20035;-55
2024/01/27 12:13:02;;;;;;;0.22;0.08;;;13.20;60.00;;;;;;21032181;27;20064;-54
2024/01/27 12:23:08;;;;;;;0.10;0.10;;;12.10;60.30;;;;;;21031646;27;20038;-54
2024/01/27 12:33:15;;;;;;;0.10;0.00;;;11.70;60.50;;;;;;21010383;27;20059;-46
2024/01/27 12:43:17;;;;;;;0.08;0.00;;;11.60;59.10;;;;;;21027381;28;20958;-45
2024/01/27 12:53:18;;;;;;;0.10;0.00;;;11.40;59.20;;;;;;21041194;27;20096;-45
2024/01/27 13:03:20;;;;;;;0.20;0.00;;;11.50;58.70;;;;;;21027002;27;20036;-46
2024/01/27 13:13:22;;;;;;;0.00;0.00;;;11.70;58.40;;;;;;21027289;27;20039;-52
2024/01/27 13:23:24;;;;;;;0.10;0.10;;;11.80;56.50;;;;;;21045711;27;21532;-48
2024/01/27 13:33:28;;;;;;;0.10;0.10;;;11.80;57.60;;;;;;21043526;27;21364;-49
2024/01/27 13:43:31;;;;;;;0.40;0.10;;;11.90;60.30;;;;;;21047418;27;20039;-48
2024/01/27 13:53:33;;;;;;;0.10;0.05;;;11.60;60.90;;;;;;21045413;27;20039;-44
2024/01/27 14:03:34;;;;;;;0.10;0.10;;;11.20;57.40;;;;;;21044426;27;20092;-48
2024/01/27 14:13:36;;;;;;;0.40;0.30;;;10.90;58.10;;;;;;21043510;27;20035;-47
2024/01/27 14:23:38;;;;;;;0.20;0.10;;;10.80;60.10;;;;;;21042207;27;21013;-49
2024/01/27 14:33:40;;;;;;;0.30;0.10;;;10.50;58.70;;;;;;21041721;27;20055;-48
2024/01/27 14:43:42;;;;;;;0.85;0.60;;;10.10;58.50;;;;;;21039533;27;20039;-47
2024/01/27 14:53:46;;;;;;;1.65;0.10;;;10.00;58.60;;;;;;21038154;27;20035;-45
2024/01/27 15:03:49;;;;;;;0.10;0.00;;;9.70;60.00;;;;;;21038746;27;20057;-46
2024/01/27 15:13:51;;;;;;;0.30;0.10;;;9.60;60.00;;;;;;21038248;27;20374;-47
2024/01/27 15:23:53;;;;;;;0.08;0.00;;;9.30;60.20;;;;;;21020075;27;21109;-47
2024/01/27 15:33:55;;;;;;;0.52;0.10;;;8.50;64.10;;;;;;21033716;27;20078;-46
2024/01/27 15:43:57;;;;;;;0.60;0.10;;;7.50;65.00;;;;;;21032183;27;20145;-46
2024/01/27 15:54:02;;;;;;;1.38;0.10;;;6.70;68.10;;;;;;21036547;27;21606;-45
2024/01/27 16:04:03;;;;;;;0.25;0.08;;;6.30;67.90;;;;;;21034577;27;20184;-45
2024/01/27 16:14:05;;;;;;;0.43;0.05;;;6.00;69.70;;;;;;21030742;27;20408;-46
2024/01/27 16:24:09;;;;;;;0.08;0.08;;;5.80;69.30;;;;;;21033333;27;21129;-45
2024/01/27 16:34:11;;;;;;;0.00;0.00;;;5.70;67.50;;;;;;21036232;27;20056;-45
2024/01/27 16:44:14;;;;;;;0.28;0.10;;;5.30;69.90;;;;;;21040949;28;20065;-47
2024/01/27 16:54:17;;;;;;;1.27;0.00;;;4.80;68.50;;;;;;21033180;28;20035;-45
2024/01/27 17:04:19;;;;;;;0.20;0.00;;;4.80;67.90;;;;;;21038443;28;20065;-50
2024/01/27 17:14:21;;;;;;;1.17;0.10;;;4.50;72.90;;;;;;21033509;28;20454;-48
2024/01/27 17:24:23;;;;;;;0.10;0.10;;;4.10;71.90;;;;;;21030845;28;20136;-47
2024/01/27 17:34:25;;;;;;;0.10;0.08;;;4.00;70.90;;;;;;21037269;27;20101;-49
2024/01/27 17:44:27;;;;;;;0.47;0.00;;;4.00;71.80;;;;;;21045434;27;20084;-46
2024/01/27 17:54:28;;;;;;;0.20;0.10;;;4.10;69.90;;;;;;21053231;27;20027;-47
2024/01/27 18:04:30;;;;;;;0.30;0.10;;;4.30;70.50;;;;;;21050737;27;20572;-49
2024/01/27 18:14:32;;;;;;;0.32;0.00;;;3.90;72.20;;;;;;21048119;27;20040;-44
2024/01/27 18:24:34;;;;;;;0.32;0.10;;;3.90;71.20;;;;;;21045312;27;20039;-46
2024/01/27 18:34:36;;;;;;;0.52;0.10;;;4.30;71.20;;;;;;21044910;27;20103;-49
2024/01/27 18:44:39;;;;;;;0.80;0.20;;;4.40;69.10;;;;;;21050253;27;20811;-46
2024/01/27 18:54:41;;;;;;;0.38;0.17;;;4.60;69.70;;;;;;21044192;27;20695;-45
2024/01/27 19:04:43;;;;;;;0.77;0.40;;;4.10;71.00;;;;;;21041824;27;20117;-46
2024/01/27 19:14:44;;;;;;;0.50;0.00;;;3.80;70.80;;;;;;21039370;27;20043;-47
2024/01/27 19:24:46;;;;;;;0.10;0.08;;;4.00;68.30;;;;;;21039804;27;20039;-45
2024/01/27 19:34:48;;;;;;;0.00;0.00;;;4.60;65.60;;;;;;21041328;27;20044;-46
2024/01/27 19:44:50;;;;;;;0.00;0.00;;;4.90;64.90;;;;;;21020776;27;21220;-49
2024/01/27 19:54:52;;;;;;;0.10;0.00;;;4.70;66.20;;;;;;21035368;27;21427;-48
2024/01/27 20:04:57;;;;;;;0.20;0.20;;;4.50;65.50;;;;;;21039924;27;20035;-49
2024/01/27 20:14:59;;;;;;;0.03;0.03;;;4.70;66.50;;;;;;21038001;27;20805;-45
2024/01/27 20:25:02;;;;;;;0.00;0.00;;;4.40;65.80;;;;;;21035901;27;20035;-48
2024/01/27 20:35:05;;;;;;;0.25;0.08;;;4.40;64.60;;;;;;20982336;27;21363;-48
2024/01/27 20:45:07;;;;;;;0.00;0.00;;;4.70;63.40;;;;;;20923211;28;20055;-49
2024/01/27 20:55:09;;;;;;;0.10;0.00;;;4.70;62.60;;;;;;20920169;28;20039;-48
2024/01/27 21:05:11;;;;;;;0.00;0.00;;;4.50;65.00;;;;;;20902926;27;20806;-47
2024/01/27 21:15:16;;;;;;;0.00;0.00;;;4.30;62.20;;;;;;20919152;27;20076;-46
2024/01/27 21:25:21;;;;;;;0.00;0.00;;;4.50;62.10;;;;;;21038408;27;20941;-46
2024/01/27 21:35:23;;;;;;;0.00;0.00;;;4.60;61.60;;;;;;20908988;28;20060;-46
2024/01/27 21:45:25;;;;;;;0.00;0.00;;;4.50;60.50;;;;;;20908703;28;20052;-50
2024/01/27 21:55:27;;;;;;;0.00;0.00;;;4.80;61.30;;;;;;20908498;28;20549;-48
2024/01/27 22:05:29;;;;;;;0.00;0.00;;;4.60;62.10;;;;;;21014096;27;20056;-49
2024/01/27 22:15:33;;;;;;;0.00;0.00;;;4.40;60.90;;;;;;21045912;27;20032;-48
2024/01/27 22:25:35;;;;;;;0.10;0.10;;;4.30;59.70;;;;;;21041442;27;20039;-45
2024/01/27 22:35:39;;;;;;;0.00;0.00;;;4.60;58.60;;;;;;21044550;27;20043;-49
2024/01/27 22:45:41;;;;;;;0.00;0.00;;;4.40;60.20;;;;;;21040812;27;20039;-50
2024/01/27 22:55:43;;;;;;;0.00;0.00;;;4.40;58.90;;;;;;21040767;27;20117;-48
2024/01/27 23:05:45;;;;;;;0.00;0.00;;;4.70;58.20;;;;;;21042783;27;20027;-50
2024/01/27 23:15:47;;;;;;;0.00;0.00;;;4.80;57.90;;;;;;21037344;27;20031;-48
2024/01/27 23:25:48;;;;;;;0.00;0.00;;;4.30;60.20;;;;;;21041156;27;20132;-46
2024/01/27 23:35:50;;;;;;;0.00;0.00;;;3.80;61.80;;;;;;21037168;27;20104;-44
2024/01/27 23:45:52;;;;;;;0.80;0.00;;;3.20;64.40;;;;;;21037876;27;20039;-46
2024/01/27 23:55:54;;;;;;;0.03;0.00;;;3.20;61.80;;;;;;21035791;27;20039;-49
